sensor_id;sensor_type;location;lat;lon;timestamp;temperature;humidity
54986;DHT22;40885;53.070;6.228;2022-07-09T00:00:24;15.80;99.90
54986;DHT22;40885;53.070;6.228;2022-07-09T00:02:50;15.80;99.90
54986;DHT22;40885;53.070;6.228;2022-07-09T00:05:15;15.80;99.90
54986;DHT22;40885;53.070;6.228;2022-07-09T00:07:41;15.70;99.90
54986;DHT22;40885;53.070;6.228;2022-07-09T00:10:07;15.70;99.90
54986;DHT22;40885;53.070;6.228;2022-07-09T00:12:33;15.70;99.90
54986;DHT22;40885;53.070;6.228;2022-07-09T00:14:59;15.70;99.90
54986;DHT22;40885;53.070;6.228;2022-07-09T00:17:25;15.70;99.90
54986;DHT22;40885;53.070;6.228;2022-07-09T00:19:56;15.70;99.90
54986;DHT22;40885;53.070;6.228;2022-07-09T00:22:22;15.70;99.90
54986;DHT22;40885;53.070;6.228;2022-07-09T00:24:47;15.60;99.90
54986;DHT22;40885;53.070;6.228;2022-07-09T00:27:13;15.60;99.90
54986;DHT22;40885;53.070;6.228;2022-07-09T00:29:39;15.60;99.90
54986;DHT22;40885;53.070;6.228;2022-07-09T00:32:05;15.60;99.90
54986;DHT22;40885;53.070;6.228;2022-07-09T00:34:31;15.60;99.90
54986;DHT22;40885;53.070;6.228;2022-07-09T00:36:57;15.60;99.90
54986;DHT22;40885;53.070;6.228;2022-07-09T00:39:26;15.60;99.90
54986;DHT22;40885;53.070;6.228;2022-07-09T00:42:08;15.60;99.90
54986;DHT22;40885;53.070;6.228;2022-07-09T00:44:34;15.70;99.90
54986;DHT22;40885;53.070;6.228;2022-07-09T00:47:00;15.60;99.90
54986;DHT22;40885;53.070;6.228;2022-07-09T00:49:28;15.70;99.90
54986;DHT22;40885;53.070;6.228;2022-07-09T00:51:56;15.70;99.90
54986;DHT22;40885;53.070;6.228;2022-07-09T00:54:23;15.70;99.90
54986;DHT22;40885;53.070;6.228;2022-07-09T00:56:49;15.70;99.90
54986;DHT22;40885;53.070;6.228;2022-07-09T00:59:19;15.70;99.90
54986;DHT22;40885;53.070;6.228;2022-07-09T01:01:45;15.70;99.90
54986;DHT22;40885;53.070;6.228;2022-07-09T01:04:11;15.70;99.90
54986;DHT22;40885;53.070;6.228;2022-07-09T01:06:37;15.70;99.90
54986;DHT22;40885;53.070;6.228;2022-07-09T01:09:03;15.80;99.90
54986;DHT22;40885;53.070;6.228;2022-07-09T01:11:30;15.80;99.90
54986;DHT22;40885;53.070;6.228;2022-07-09T01:13:57;15.80;99.90
54986;DHT22;40885;53.070;6.228;2022-07-09T01:16:31;15.80;99.90
54986;DHT22;40885;53.070;6.228;2022-07-09T01:18:57;15.90;99.90
54986;DHT22;40885;53.070;6.228;2022-07-09T01:21:22;15.90;99.90
54986;DHT22;40885;53.070;6.228;2022-07-09T01:23:51;15.90;99.90
54986;DHT22;40885;53.070;6.228;2022-07-09T01:26:18;15.90;99.90
54986;DHT22;40885;53.070;6.228;2022-07-09T01:28:47;15.90;99.90
54986;DHT22;40885;53.070;6.228;2022-07-09T01:31:13;15.90;99.90
54986;DHT22;40885;53.070;6.228;2022-07-09T01:33:39;15.90;99.90
54986;DHT22;40885;53.070;6.228;2022-07-09T01:36:06;16.00;99.90
54986;DHT22;40885;53.070;6.228;2022-07-09T01:38:32;16.00;99.90
54986;DHT22;40885;53.070;6.228;2022-07-09T01:40:58;15.90;99.90
54986;DHT22;40885;53.070;6.228;2022-07-09T01:43:24;15.90;99.90
54986;DHT22;40885;53.070;6.228;2022-07-09T01:45:49;16.00;99.90
54986;DHT22;40885;53.070;6.228;2022-07-09T01:48:15;15.90;99.90
54986;DHT22;40885;53.070;6.228;2022-07-09T01:50:41;15.90;99.90
54986;DHT22;40885;53.070;6.228;2022-07-09T01:53:07;15.90;99.90
54986;DHT22;40885;53.070;6.228;2022-07-09T01:55:33;15.90;99.90
54986;DHT22;40885;53.070;6.228;2022-07-09T01:57:59;15.90;99.90
54986;DHT22;40885;53.070;6.228;2022-07-09T02:00:24;15.90;99.90
54986;DHT22;40885;53.070;6.228;2022-07-09T02:02:53;15.90;99.90
54986;DHT22;40885;53.070;6.228;2022-07-09T02:05:20;15.90;99.90
54986;DHT22;40885;53.070;6.228;2022-07-09T02:07:46;15.90;99.90
54986;DHT22;40885;53.070;6.228;2022-07-09T02:10:12;15.90;99.90
54986;DHT22;40885;53.070;6.228;2022-07-09T02:12:38;15.90;99.90
54986;DHT22;40885;53.070;6.228;2022-07-09T02:15:05;15.90;99.90
54986;DHT22;40885;53.070;6.228;2022-07-09T02:17:32;15.90;99.90
54986;DHT22;40885;53.070;6.228;2022-07-09T02:19:58;15.90;99.90
54986;DHT22;40885;53.070;6.228;2022-07-09T02:22:24;15.90;99.90
54986;DHT22;40885;53.070;6.228;2022-07-09T02:24:49;15.90;99.90
54986;DHT22;40885;53.070;6.228;2022-07-09T02:27:15;15.80;99.90
54986;DHT22;40885;53.070;6.228;2022-07-09T02:29:41;15.90;99.90
54986;DHT22;40885;53.070;6.228;2022-07-09T02:32:07;15.80;99.90
54986;DHT22;40885;53.070;6.228;2022-07-09T02:34:36;15.80;99.90
54986;DHT22;40885;53.070;6.228;2022-07-09T02:37:03;15.80;99.90
54986;DHT22;40885;53.070;6.228;2022-07-09T02:39:29;15.80;99.90
54986;DHT22;40885;53.070;6.228;2022-07-09T02:41:55;15.80;99.90
54986;DHT22;40885;53.070;6.228;2022-07-09T02:44:21;15.80;99.90
54986;DHT22;40885;53.070;6.228;2022-07-09T02:46:46;15.80;99.90
54986;DHT22;40885;53.070;6.228;2022-07-09T02:49:12;15.80;99.90
54986;DHT22;40885;53.070;6.228;2022-07-09T02:51:38;15.90;99.90
54986;DHT22;40885;53.070;6.228;2022-07-09T02:54:04;15.90;99.90
54986;DHT22;40885;53.070;6.228;2022-07-09T02:56:30;15.90;99.90
54986;DHT22;40885;53.070;6.228;2022-07-09T02:58:56;15.90;99.90
54986;DHT22;40885;53.070;6.228;2022-07-09T03:01:22;15.90;99.90
54986;DHT22;40885;53.070;6.228;2022-07-09T03:03:48;16.00;99.90
54986;DHT22;40885;53.070;6.228;2022-07-09T03:06:13;15.90;99.90
54986;DHT22;40885;53.070;6.228;2022-07-09T03:08:40;15.90;99.90
54986;DHT22;40885;53.070;6.228;2022-07-09T03:11:06;15.90;99.90
54986;DHT22;40885;53.070;6.228;2022-07-09T03:13:33;15.90;99.90
54986;DHT22;40885;53.070;6.228;2022-07-09T03:15:59;15.90;99.90
54986;DHT22;40885;53.070;6.228;2022-07-09T03:18:24;15.90;99.90
54986;DHT22;40885;53.070;6.228;2022-07-09T03:20:50;15.80;99.90
54986;DHT22;40885;53.070;6.228;2022-07-09T03:23:16;15.80;99.90
54986;DHT22;40885;53.070;6.228;2022-07-09T03:25:42;15.80;99.90
54986;DHT22;40885;53.070;6.228;2022-07-09T03:28:09;15.80;99.90
54986;DHT22;40885;53.070;6.228;2022-07-09T03:30:38;15.80;99.90
54986;DHT22;40885;53.070;6.228;2022-07-09T03:33:03;15.80;99.90
54986;DHT22;40885;53.070;6.228;2022-07-09T03:35:29;15.70;99.90
54986;DHT22;40885;53.070;6.228;2022-07-09T03:37:55;15.70;99.90
54986;DHT22;40885;53.070;6.228;2022-07-09T03:40:21;15.70;99.90
54986;DHT22;40885;53.070;6.228;2022-07-09T03:42:46;15.70;99.90
54986;DHT22;40885;53.070;6.228;2022-07-09T03:45:12;15.80;99.90
54986;DHT22;40885;53.070;6.228;2022-07-09T03:47:38;15.80;99.90
54986;DHT22;40885;53.070;6.228;2022-07-09T03:50:04;15.70;99.90
54986;DHT22;40885;53.070;6.228;2022-07-09T03:52:30;15.70;99.90
54986;DHT22;40885;53.070;6.228;2022-07-09T03:54:56;15.70;99.90
54986;DHT22;40885;53.070;6.228;2022-07-09T03:57:22;15.70;99.90
54986;DHT22;40885;53.070;6.228;2022-07-09T03:59:47;15.70;99.90
54986;DHT22;40885;53.070;6.228;2022-07-09T04:02:13;15.70;99.90
54986;DHT22;40885;53.070;6.228;2022-07-09T04:04:39;15.70;99.90
54986;DHT22;40885;53.070;6.228;2022-07-09T04:07:05;15.70;99.90
54986;DHT22;40885;53.070;6.228;2022-07-09T04:09:31;15.70;99.90
54986;DHT22;40885;53.070;6.228;2022-07-09T04:11:56;15.70;99.90
54986;DHT22;40885;53.070;6.228;2022-07-09T04:14:22;15.70;99.90
54986;DHT22;40885;53.070;6.228;2022-07-09T04:16:48;15.70;99.90
54986;DHT22;40885;53.070;6.228;2022-07-09T04:19:13;15.80;99.90
54986;DHT22;40885;53.070;6.228;2022-07-09T04:21:39;15.80;99.90
54986;DHT22;40885;53.070;6.228;2022-07-09T04:24:05;15.80;99.90
54986;DHT22;40885;53.070;6.228;2022-07-09T04:26:31;15.80;99.90
54986;DHT22;40885;53.070;6.228;2022-07-09T04:28:57;15.80;99.90
54986;DHT22;40885;53.070;6.228;2022-07-09T04:31:22;15.80;99.90
54986;DHT22;40885;53.070;6.228;2022-07-09T04:33:48;15.80;99.90
54986;DHT22;40885;53.070;6.228;2022-07-09T04:36:15;15.80;99.90
54986;DHT22;40885;53.070;6.228;2022-07-09T04:38:40;15.80;99.90
54986;DHT22;40885;53.070;6.228;2022-07-09T04:41:06;15.90;99.90
54986;DHT22;40885;53.070;6.228;2022-07-09T04:43:32;15.90;99.90
54986;DHT22;40885;53.070;6.228;2022-07-09T04:45:58;15.90;99.90
54986;DHT22;40885;53.070;6.228;2022-07-09T04:48:25;15.90;99.90
54986;DHT22;40885;53.070;6.228;2022-07-09T04:50:51;15.90;99.90
54986;DHT22;40885;53.070;6.228;2022-07-09T04:53:16;15.90;99.90
54986;DHT22;40885;53.070;6.228;2022-07-09T04:55:42;16.00;99.90
54986;DHT22;40885;53.070;6.228;2022-07-09T04:58:08;16.00;99.90
54986;DHT22;40885;53.070;6.228;2022-07-09T05:00:34;16.00;99.90
54986;DHT22;40885;53.070;6.228;2022-07-09T05:03:00;16.00;99.90
54986;DHT22;40885;53.070;6.228;2022-07-09T05:05:26;16.10;99.90
54986;DHT22;40885;53.070;6.228;2022-07-09T05:07:52;16.10;99.90
54986;DHT22;40885;53.070;6.228;2022-07-09T05:10:18;16.10;99.90
54986;DHT22;40885;53.070;6.228;2022-07-09T05:12:45;16.20;99.90
54986;DHT22;40885;53.070;6.228;2022-07-09T05:15:11;16.20;99.90
54986;DHT22;40885;53.070;6.228;2022-07-09T05:17:38;16.30;99.90
54986;DHT22;40885;53.070;6.228;2022-07-09T05:20:05;16.30;99.90
54986;DHT22;40885;53.070;6.228;2022-07-09T05:22:31;16.40;99.90
54986;DHT22;40885;53.070;6.228;2022-07-09T05:24:58;16.50;99.90
54986;DHT22;40885;53.070;6.228;2022-07-09T05:27:24;16.50;99.90
54986;DHT22;40885;53.070;6.228;2022-07-09T05:29:50;16.60;99.90
54986;DHT22;40885;53.070;6.228;2022-07-09T05:32:16;16.60;99.90
54986;DHT22;40885;53.070;6.228;2022-07-09T05:34:42;16.60;99.90
54986;DHT22;40885;53.070;6.228;2022-07-09T05:37:08;16.60;99.90
54986;DHT22;40885;53.070;6.228;2022-07-09T05:39:34;16.70;99.90
54986;DHT22;40885;53.070;6.228;2022-07-09T05:42:00;16.80;99.90
54986;DHT22;40885;53.070;6.228;2022-07-09T05:44:26;16.70;99.90
54986;DHT22;40885;53.070;6.228;2022-07-09T05:46:51;16.80;99.90
54986;DHT22;40885;53.070;6.228;2022-07-09T05:49:17;16.80;99.90
54986;DHT22;40885;53.070;6.228;2022-07-09T05:51:43;16.80;99.90
54986;DHT22;40885;53.070;6.228;2022-07-09T05:54:09;16.80;99.90
54986;DHT22;40885;53.070;6.228;2022-07-09T05:56:35;16.90;99.90
54986;DHT22;40885;53.070;6.228;2022-07-09T05:59:03;16.90;99.90
54986;DHT22;40885;53.070;6.228;2022-07-09T06:01:29;16.90;99.90
54986;DHT22;40885;53.070;6.228;2022-07-09T06:03:54;16.90;99.90
54986;DHT22;40885;53.070;6.228;2022-07-09T06:06:20;17.00;99.90
54986;DHT22;40885;53.070;6.228;2022-07-09T06:08:46;17.00;99.90
54986;DHT22;40885;53.070;6.228;2022-07-09T06:11:12;17.00;99.90
54986;DHT22;40885;53.070;6.228;2022-07-09T06:13:38;17.10;99.90
54986;DHT22;40885;53.070;6.228;2022-07-09T06:16:04;17.10;99.90
54986;DHT22;40885;53.070;6.228;2022-07-09T06:18:30;17.20;99.90
54986;DHT22;40885;53.070;6.228;2022-07-09T06:20:55;17.20;99.90
54986;DHT22;40885;53.070;6.228;2022-07-09T06:23:21;17.20;99.90
54986;DHT22;40885;53.070;6.228;2022-07-09T06:25:47;17.20;99.90
54986;DHT22;40885;53.070;6.228;2022-07-09T06:28:13;17.30;99.90
54986;DHT22;40885;53.070;6.228;2022-07-09T06:30:39;17.30;99.90
54986;DHT22;40885;53.070;6.228;2022-07-09T06:33:08;17.30;99.90
54986;DHT22;40885;53.070;6.228;2022-07-09T06:35:33;17.40;99.90
54986;DHT22;40885;53.070;6.228;2022-07-09T06:37:59;17.40;99.90
54986;DHT22;40885;53.070;6.228;2022-07-09T06:40:26;17.40;99.90
54986;DHT22;40885;53.070;6.228;2022-07-09T06:42:52;17.40;99.90
54986;DHT22;40885;53.070;6.228;2022-07-09T06:45:18;17.40;99.90
54986;DHT22;40885;53.070;6.228;2022-07-09T06:47:45;17.50;99.90
54986;DHT22;40885;53.070;6.228;2022-07-09T06:50:11;17.50;99.90
54986;DHT22;40885;53.070;6.228;2022-07-09T06:52:36;17.50;99.90
54986;DHT22;40885;53.070;6.228;2022-07-09T06:55:03;17.60;99.90
54986;DHT22;40885;53.070;6.228;2022-07-09T06:57:28;17.60;99.90
54986;DHT22;40885;53.070;6.228;2022-07-09T06:59:56;17.60;99.90
54986;DHT22;40885;53.070;6.228;2022-07-09T07:02:22;17.70;99.90
54986;DHT22;40885;53.070;6.228;2022-07-09T07:04:47;17.70;99.90
54986;DHT22;40885;53.070;6.228;2022-07-09T07:07:13;17.70;99.90
54986;DHT22;40885;53.070;6.228;2022-07-09T07:09:39;17.80;99.90
54986;DHT22;40885;53.070;6.228;2022-07-09T07:12:05;17.80;99.90
54986;DHT22;40885;53.070;6.228;2022-07-09T07:14:31;17.80;99.90
54986;DHT22;40885;53.070;6.228;2022-07-09T07:16:57;17.80;99.90
54986;DHT22;40885;53.070;6.228;2022-07-09T07:19:22;17.80;99.90
54986;DHT22;40885;53.070;6.228;2022-07-09T07:21:49;17.80;99.90
54986;DHT22;40885;53.070;6.228;2022-07-09T07:24:15;17.80;99.90
54986;DHT22;40885;53.070;6.228;2022-07-09T07:26:41;17.90;99.90
54986;DHT22;40885;53.070;6.228;2022-07-09T07:29:07;17.90;99.90
54986;DHT22;40885;53.070;6.228;2022-07-09T07:31:33;17.90;99.90
54986;DHT22;40885;53.070;6.228;2022-07-09T07:33:59;18.00;99.90
54986;DHT22;40885;53.070;6.228;2022-07-09T07:36:28;18.00;99.90
54986;DHT22;40885;53.070;6.228;2022-07-09T07:38:54;18.10;99.90
54986;DHT22;40885;53.070;6.228;2022-07-09T07:41:20;18.10;99.90
54986;DHT22;40885;53.070;6.228;2022-07-09T07:43:47;18.20;99.90
54986;DHT22;40885;53.070;6.228;2022-07-09T07:46:14;18.20;99.90
54986;DHT22;40885;53.070;6.228;2022-07-09T07:48:39;18.20;99.90
54986;DHT22;40885;53.070;6.228;2022-07-09T07:51:08;18.30;99.90
54986;DHT22;40885;53.070;6.228;2022-07-09T07:53:34;18.50;99.90
54986;DHT22;40885;53.070;6.228;2022-07-09T07:56:04;18.70;99.90
54986;DHT22;40885;53.070;6.228;2022-07-09T07:58:30;18.80;99.90
54986;DHT22;40885;53.070;6.228;2022-07-09T08:00:56;19.00;99.90
54986;DHT22;40885;53.070;6.228;2022-07-09T08:03:22;19.20;99.90
54986;DHT22;40885;53.070;6.228;2022-07-09T08:05:48;19.30;99.90
54986;DHT22;40885;53.070;6.228;2022-07-09T08:08:14;19.40;99.90
54986;DHT22;40885;53.070;6.228;2022-07-09T08:10:40;19.40;99.90
54986;DHT22;40885;53.070;6.228;2022-07-09T08:13:05;19.40;99.90
54986;DHT22;40885;53.070;6.228;2022-07-09T08:15:31;19.40;99.90
54986;DHT22;40885;53.070;6.228;2022-07-09T08:17:57;19.50;99.90
54986;DHT22;40885;53.070;6.228;2022-07-09T08:20:24;19.60;99.90
54986;DHT22;40885;53.070;6.228;2022-07-09T08:22:50;19.70;99.90
54986;DHT22;40885;53.070;6.228;2022-07-09T08:25:15;19.60;99.90
54986;DHT22;40885;53.070;6.228;2022-07-09T08:27:41;19.50;99.90
54986;DHT22;40885;53.070;6.228;2022-07-09T08:30:07;19.50;99.90
54986;DHT22;40885;53.070;6.228;2022-07-09T08:32:33;19.50;99.90
54986;DHT22;40885;53.070;6.228;2022-07-09T08:34:59;19.50;99.90
54986;DHT22;40885;53.070;6.228;2022-07-09T08:37:27;19.60;99.90
54986;DHT22;40885;53.070;6.228;2022-07-09T08:39:53;19.70;99.90
54986;DHT22;40885;53.070;6.228;2022-07-09T08:42:19;19.70;99.90
54986;DHT22;40885;53.070;6.228;2022-07-09T08:44:47;19.70;99.90
54986;DHT22;40885;53.070;6.228;2022-07-09T08:47:14;19.60;99.90
54986;DHT22;40885;53.070;6.228;2022-07-09T08:49:41;19.60;99.90
54986;DHT22;40885;53.070;6.228;2022-07-09T08:52:08;19.60;99.90
54986;DHT22;40885;53.070;6.228;2022-07-09T08:54:52;19.50;99.90
54986;DHT22;40885;53.070;6.228;2022-07-09T08:57:22;18.60;99.90
54986;DHT22;40885;53.070;6.228;2022-07-09T08:59:47;19.60;99.90
54986;DHT22;40885;53.070;6.228;2022-07-09T09:02:13;19.70;99.90
54986;DHT22;40885;53.070;6.228;2022-07-09T09:04:42;19.80;99.90
54986;DHT22;40885;53.070;6.228;2022-07-09T09:09:38;19.90;99.90
54986;DHT22;40885;53.070;6.228;2022-07-09T09:12:04;19.90;99.90
54986;DHT22;40885;53.070;6.228;2022-07-09T09:14:30;19.90;99.90
54986;DHT22;40885;53.070;6.228;2022-07-09T09:17:09;19.90;99.90
54986;DHT22;40885;53.070;6.228;2022-07-09T09:19:40;19.70;99.90
54986;DHT22;40885;53.070;6.228;2022-07-09T09:22:07;19.70;99.90
54986;DHT22;40885;53.070;6.228;2022-07-09T09:24:33;19.70;99.90
54986;DHT22;40885;53.070;6.228;2022-07-09T09:27:03;19.80;99.90
54986;DHT22;40885;53.070;6.228;2022-07-09T09:29:29;19.90;99.90
54986;DHT22;40885;53.070;6.228;2022-07-09T09:31:55;19.90;99.90
54986;DHT22;40885;53.070;6.228;2022-07-09T09:34:22;19.90;99.90
54986;DHT22;40885;53.070;6.228;2022-07-09T09:36:50;19.90;99.90
54986;DHT22;40885;53.070;6.228;2022-07-09T09:39:28;19.90;99.90
54986;DHT22;40885;53.070;6.228;2022-07-09T09:41:56;19.90;99.90
54986;DHT22;40885;53.070;6.228;2022-07-09T09:44:30;19.80;99.90
54986;DHT22;40885;53.070;6.228;2022-07-09T09:46:58;19.90;99.90
54986;DHT22;40885;53.070;6.228;2022-07-09T09:49:24;19.90;99.90
54986;DHT22;40885;53.070;6.228;2022-07-09T09:52:10;19.90;99.90
54986;DHT22;40885;53.070;6.228;2022-07-09T09:54:37;20.00;99.90
54986;DHT22;40885;53.070;6.228;2022-07-09T09:57:09;20.00;99.90
54986;DHT22;40885;53.070;6.228;2022-07-09T09:59:43;20.10;99.90
54986;DHT22;40885;53.070;6.228;2022-07-09T10:02:13;20.10;99.90
54986;DHT22;40885;53.070;6.228;2022-07-09T10:04:41;20.10;99.90
54986;DHT22;40885;53.070;6.228;2022-07-09T10:07:09;20.10;99.90
54986;DHT22;40885;53.070;6.228;2022-07-09T10:09:38;20.10;99.90
54986;DHT22;40885;53.070;6.228;2022-07-09T10:12:05;20.00;99.90
54986;DHT22;40885;53.070;6.228;2022-07-09T10:14:33;19.90;99.90
54986;DHT22;40885;53.070;6.228;2022-07-09T10:17:10;19.90;99.90
54986;DHT22;40885;53.070;6.228;2022-07-09T10:19:37;20.00;99.90
54986;DHT22;40885;53.070;6.228;2022-07-09T10:22:03;20.00;99.90
54986;DHT22;40885;53.070;6.228;2022-07-09T10:24:30;20.00;99.90
54986;DHT22;40885;53.070;6.228;2022-07-09T10:27:10;20.20;99.90
54986;DHT22;40885;53.070;6.228;2022-07-09T10:32:30;20.30;99.90
54986;DHT22;40885;53.070;6.228;2022-07-09T10:35:00;20.20;99.90
54986;DHT22;40885;53.070;6.228;2022-07-09T10:37:43;20.00;99.90
54986;DHT22;40885;53.070;6.228;2022-07-09T10:42:36;19.30;99.90
54986;DHT22;40885;53.070;6.228;2022-07-09T10:45:02;19.00;99.90
54986;DHT22;40885;53.070;6.228;2022-07-09T10:47:37;18.60;99.90
54986;DHT22;40885;53.070;6.228;2022-07-09T10:50:04;18.20;99.90
54986;DHT22;40885;53.070;6.228;2022-07-09T10:52:31;17.80;99.90
54986;DHT22;40885;53.070;6.228;2022-07-09T10:54:56;17.60;99.90
54986;DHT22;40885;53.070;6.228;2022-07-09T10:57:28;17.40;99.90
54986;DHT22;40885;53.070;6.228;2022-07-09T11:00:00;17.40;99.90
54986;DHT22;40885;53.070;6.228;2022-07-09T11:02:50;17.40;99.90
54986;DHT22;40885;53.070;6.228;2022-07-09T11:05:15;17.60;99.90
54986;DHT22;40885;53.070;6.228;2022-07-09T11:08:03;17.60;99.90
54986;DHT22;40885;53.070;6.228;2022-07-09T11:10:30;17.80;99.90
54986;DHT22;40885;53.070;6.228;2022-07-09T11:12:58;17.90;99.90
54986;DHT22;40885;53.070;6.228;2022-07-09T11:15:26;18.00;99.90
54986;DHT22;40885;53.070;6.228;2022-07-09T11:18:16;18.10;99.90
54986;DHT22;40885;53.070;6.228;2022-07-09T11:20:43;18.10;99.90
54986;DHT22;40885;53.070;6.228;2022-07-09T11:23:14;18.20;99.90
54986;DHT22;40885;53.070;6.228;2022-07-09T11:25:41;18.20;99.90
54986;DHT22;40885;53.070;6.228;2022-07-09T11:28:07;18.20;99.90
54986;DHT22;40885;53.070;6.228;2022-07-09T11:30:33;18.40;99.90
54986;DHT22;40885;53.070;6.228;2022-07-09T11:33:00;18.40;99.90
54986;DHT22;40885;53.070;6.228;2022-07-09T11:35:27;18.60;99.90
54986;DHT22;40885;53.070;6.228;2022-07-09T11:37:55;18.60;99.90
54986;DHT22;40885;53.070;6.228;2022-07-09T11:40:21;18.60;99.90
54986;DHT22;40885;53.070;6.228;2022-07-09T11:42:47;18.60;99.90
54986;DHT22;40885;53.070;6.228;2022-07-09T11:45:19;18.60;99.90
54986;DHT22;40885;53.070;6.228;2022-07-09T11:47:45;18.60;99.90
54986;DHT22;40885;53.070;6.228;2022-07-09T11:50:13;18.60;99.90
54986;DHT22;40885;53.070;6.228;2022-07-09T11:52:50;18.60;99.90
54986;DHT22;40885;53.070;6.228;2022-07-09T11:55:21;18.70;99.90
54986;DHT22;40885;53.070;6.228;2022-07-09T11:57:53;18.80;99.90
54986;DHT22;40885;53.070;6.228;2022-07-09T12:00:24;18.90;99.90
54986;DHT22;40885;53.070;6.228;2022-07-09T12:03:00;18.90;99.90
54986;DHT22;40885;53.070;6.228;2022-07-09T12:05:34;18.90;99.90
54986;DHT22;40885;53.070;6.228;2022-07-09T12:08:06;19.00;99.90
54986;DHT22;40885;53.070;6.228;2022-07-09T12:10:37;19.10;99.90
54986;DHT22;40885;53.070;6.228;2022-07-09T12:13:05;19.10;99.90
54986;DHT22;40885;53.070;6.228;2022-07-09T12:15:31;19.10;99.90
54986;DHT22;40885;53.070;6.228;2022-07-09T12:17:59;19.20;99.90
54986;DHT22;40885;53.070;6.228;2022-07-09T12:20:30;19.20;99.90
54986;DHT22;40885;53.070;6.228;2022-07-09T12:22:57;19.30;99.90
54986;DHT22;40885;53.070;6.228;2022-07-09T12:25:23;19.30;99.90
54986;DHT22;40885;53.070;6.228;2022-07-09T12:27:49;19.30;99.90
54986;DHT22;40885;53.070;6.228;2022-07-09T12:30:15;19.30;99.90
54986;DHT22;40885;53.070;6.228;2022-07-09T12:32:42;19.20;99.90
54986;DHT22;40885;53.070;6.228;2022-07-09T12:35:09;19.20;99.90
54986;DHT22;40885;53.070;6.228;2022-07-09T12:37:36;19.20;99.90
54986;DHT22;40885;53.070;6.228;2022-07-09T12:40:03;19.20;99.90
54986;DHT22;40885;53.070;6.228;2022-07-09T12:42:29;19.20;99.90
54986;DHT22;40885;53.070;6.228;2022-07-09T12:44:55;19.10;99.90
54986;DHT22;40885;53.070;6.228;2022-07-09T12:47:20;18.90;99.90
54986;DHT22;40885;53.070;6.228;2022-07-09T12:49:46;19.00;99.90
54986;DHT22;40885;53.070;6.228;2022-07-09T12:52:12;18.90;99.90
54986;DHT22;40885;53.070;6.228;2022-07-09T12:54:38;18.80;99.90
54986;DHT22;40885;53.070;6.228;2022-07-09T12:57:07;18.80;99.90
54986;DHT22;40885;53.070;6.228;2022-07-09T12:59:48;19.40;99.90
54986;DHT22;40885;53.070;6.228;2022-07-09T13:02:16;18.80;99.90
54986;DHT22;40885;53.070;6.228;2022-07-09T13:04:51;18.80;99.90
54986;DHT22;40885;53.070;6.228;2022-07-09T13:07:20;18.80;99.90
54986;DHT22;40885;53.070;6.228;2022-07-09T13:09:47;18.80;99.90
54986;DHT22;40885;53.070;6.228;2022-07-09T13:12:13;18.80;99.90
54986;DHT22;40885;53.070;6.228;2022-07-09T13:14:39;18.90;99.90
54986;DHT22;40885;53.070;6.228;2022-07-09T13:17:05;19.00;99.90
54986;DHT22;40885;53.070;6.228;2022-07-09T13:19:30;19.10;99.90
54986;DHT22;40885;53.070;6.228;2022-07-09T13:21:56;19.10;99.90
54986;DHT22;40885;53.070;6.228;2022-07-09T13:24:22;19.20;99.90
54986;DHT22;40885;53.070;6.228;2022-07-09T13:26:48;19.20;99.90
54986;DHT22;40885;53.070;6.228;2022-07-09T13:29:13;19.00;99.90
54986;DHT22;40885;53.070;6.228;2022-07-09T13:31:42;18.80;99.90
54986;DHT22;40885;53.070;6.228;2022-07-09T13:34:07;18.70;99.90
54986;DHT22;40885;53.070;6.228;2022-07-09T13:36:33;18.60;99.90
54986;DHT22;40885;53.070;6.228;2022-07-09T13:38:59;18.50;99.90
54986;DHT22;40885;53.070;6.228;2022-07-09T13:41:25;18.40;99.90
54986;DHT22;40885;53.070;6.228;2022-07-09T13:43:50;18.40;99.90
54986;DHT22;40885;53.070;6.228;2022-07-09T13:46:16;18.40;99.90
54986;DHT22;40885;53.070;6.228;2022-07-09T13:48:42;18.40;99.90
54986;DHT22;40885;53.070;6.228;2022-07-09T13:51:08;18.50;99.90
54986;DHT22;40885;53.070;6.228;2022-07-09T13:53:33;18.60;99.90
54986;DHT22;40885;53.070;6.228;2022-07-09T13:55:59;18.60;99.90
54986;DHT22;40885;53.070;6.228;2022-07-09T13:58:25;18.60;99.90
54986;DHT22;40885;53.070;6.228;2022-07-09T14:00:51;18.60;99.90
54986;DHT22;40885;53.070;6.228;2022-07-09T14:03:17;18.70;99.90
54986;DHT22;40885;53.070;6.228;2022-07-09T14:05:43;18.70;99.90
54986;DHT22;40885;53.070;6.228;2022-07-09T14:08:09;18.70;99.90
54986;DHT22;40885;53.070;6.228;2022-07-09T14:10:35;18.70;99.90
54986;DHT22;40885;53.070;6.228;2022-07-09T14:13:02;18.50;99.90
54986;DHT22;40885;53.070;6.228;2022-07-09T14:15:28;18.40;99.90
54986;DHT22;40885;53.070;6.228;2022-07-09T14:17:54;18.30;99.90
54986;DHT22;40885;53.070;6.228;2022-07-09T14:20:19;18.30;99.90
54986;DHT22;40885;53.070;6.228;2022-07-09T14:22:46;18.30;99.90
54986;DHT22;40885;53.070;6.228;2022-07-09T14:25:12;18.30;99.90
54986;DHT22;40885;53.070;6.228;2022-07-09T14:27:38;18.30;99.90
54986;DHT22;40885;53.070;6.228;2022-07-09T14:30:04;18.30;99.90
54986;DHT22;40885;53.070;6.228;2022-07-09T14:32:30;18.20;99.90
54986;DHT22;40885;53.070;6.228;2022-07-09T14:34:56;18.20;99.90
54986;DHT22;40885;53.070;6.228;2022-07-09T14:37:21;18.30;99.90
54986;DHT22;40885;53.070;6.228;2022-07-09T14:39:47;18.20;99.90
54986;DHT22;40885;53.070;6.228;2022-07-09T14:42:13;18.20;99.90
54986;DHT22;40885;53.070;6.228;2022-07-09T14:44:39;18.20;99.90
54986;DHT22;40885;53.070;6.228;2022-07-09T14:47:04;18.30;99.90
54986;DHT22;40885;53.070;6.228;2022-07-09T14:49:30;18.30;99.90
54986;DHT22;40885;53.070;6.228;2022-07-09T14:51:56;18.30;99.90
54986;DHT22;40885;53.070;6.228;2022-07-09T14:54:22;18.50;99.90
54986;DHT22;40885;53.070;6.228;2022-07-09T14:56:48;18.50;99.90
54986;DHT22;40885;53.070;6.228;2022-07-09T14:59:14;18.60;99.90
54986;DHT22;40885;53.070;6.228;2022-07-09T15:01:45;18.80;99.90
54986;DHT22;40885;53.070;6.228;2022-07-09T15:04:12;18.90;99.90
54986;DHT22;40885;53.070;6.228;2022-07-09T15:06:38;19.10;99.90
54986;DHT22;40885;53.070;6.228;2022-07-09T15:09:04;19.10;99.90
54986;DHT22;40885;53.070;6.228;2022-07-09T15:11:30;18.80;99.90
54986;DHT22;40885;53.070;6.228;2022-07-09T15:13:57;18.70;99.90
54986;DHT22;40885;53.070;6.228;2022-07-09T15:16:22;18.60;99.90
54986;DHT22;40885;53.070;6.228;2022-07-09T15:18:48;18.50;99.90
54986;DHT22;40885;53.070;6.228;2022-07-09T15:21:16;18.50;99.90
54986;DHT22;40885;53.070;6.228;2022-07-09T15:23:42;18.20;99.90
54986;DHT22;40885;53.070;6.228;2022-07-09T15:26:07;18.20;99.90
54986;DHT22;40885;53.070;6.228;2022-07-09T15:28:33;18.10;99.90
54986;DHT22;40885;53.070;6.228;2022-07-09T15:30:59;18.10;99.90
54986;DHT22;40885;53.070;6.228;2022-07-09T15:33:25;18.10;99.90
54986;DHT22;40885;53.070;6.228;2022-07-09T15:35:51;18.20;99.90